Time;durP1;ratioP1;P1;durP2;ratioP2;P2;SDS_P1;SDS_P2;PMS_P1;PMS_P2;Temp;Humidity;BMP_temperature;BMP_pressure;BME280_temperature;BME280_humidity;BME280_pressure;Samples;Min_cycle;Max_cycle;Signal;HPM_P1;HPM_P2
2022/03/03 00:01:19;;;;;;;11.90;7.90;;;6.60;96.70;;;;;;4995062;28;20049;-82
2022/03/03 00:03:47;;;;;;;13.85;9.38;;;6.50;96.70;;;;;;4977077;28;20504;-82
2022/03/03 00:06:16;;;;;;;13.05;9.55;;;6.60;96.70;;;;;;4987257;28;20066;-83
2022/03/03 00:08:46;;;;;;;13.68;10.05;;;6.70;96.70;;;;;;4973033;28;20042;-82
2022/03/03 00:11:14;;;;;;;10.02;8.18;;;6.80;96.70;;;;;;4998490;28;20050;-83
2022/03/03 00:13:42;;;;;;;12.93;8.93;;;6.70;96.70;;;;;;4987493;28;20133;-83
2022/03/03 00:16:10;;;;;;;13.23;9.07;;;6.70;96.70;;;;;;4989480;28;20046;-83
2022/03/03 00:18:39;;;;;;;11.20;8.80;;;6.60;96.70;;;;;;5006600;28;20038;-83
2022/03/03 00:21:07;;;;;;;12.95;9.02;;;6.60;96.70;;;;;;5006084;28;20050;-83
2022/03/03 00:23:36;;;;;;;10.68;7.93;;;6.50;96.70;;;;;;5007291;28;20078;-83
2022/03/03 00:26:06;;;;;;;9.57;7.68;;;6.60;96.70;;;;;;4991924;28;20453;-82
2022/03/03 00:28:34;;;;;;;11.07;7.28;;;6.50;96.70;;;;;;4993805;28;20078;-83
2022/03/03 00:31:03;;;;;;;10.45;6.72;;;6.50;96.70;;;;;;4991388;28;20050;-82
2022/03/03 00:33:31;;;;;;;7.78;6.10;;;6.60;96.70;;;;;;4990017;28;20051;-83
2022/03/03 00:35:59;;;;;;;10.15;6.80;;;6.50;96.70;;;;;;4995779;28;20170;-83
2022/03/03 00:38:28;;;;;;;10.02;7.03;;;6.50;96.70;;;;;;4992867;28;20081;-82
2022/03/03 00:40:56;;;;;;;8.45;6.65;;;6.40;96.70;;;;;;4976404;28;20137;-82
2022/03/03 00:43:26;;;;;;;9.68;7.82;;;6.40;96.70;;;;;;5009279;28;20038;-83
2022/03/03 00:45:54;;;;;;;11.20;7.85;;;6.30;96.70;;;;;;4988784;28;20133;-82
2022/03/03 00:48:22;;;;;;;12.02;8.70;;;6.40;96.70;;;;;;4994647;28;20056;-83
2022/03/03 00:50:50;;;;;;;10.43;8.30;;;6.40;96.70;;;;;;4989905;28;20053;-82
2022/03/03 00:53:19;;;;;;;11.90;8.40;;;6.40;96.70;;;;;;4991084;28;20045;-83
2022/03/03 00:55:47;;;;;;;12.30;8.27;;;6.50;96.70;;;;;;4974256;28;20053;-82
2022/03/03 00:58:15;;;;;;;12.63;8.38;;;6.60;96.70;;;;;;4989549;28;20038;-82
2022/03/03 01:00:45;;;;;;;13.75;8.70;;;6.50;96.70;;;;;;4990574;28;20049;-82
2022/03/03 01:03:13;;;;;;;10.95;8.90;;;6.50;96.70;;;;;;4989245;28;20073;-83
2022/03/03 01:05:42;;;;;;;13.63;8.35;;;6.50;96.70;;;;;;4989422;28;20065;-82
2022/03/03 01:08:10;;;;;;;11.48;8.27;;;6.40;96.70;;;;;;5004644;28;20049;-80
2022/03/03 01:10:39;;;;;;;10.52;8.02;;;6.30;96.70;;;;;;5007908;28;20484;-83
2022/03/03 01:13:07;;;;;;;13.15;8.45;;;6.30;96.70;;;;;;4988825;28;20057;-82
2022/03/03 01:15:36;;;;;;;11.85;8.73;;;6.30;96.70;;;;;;4995846;28;20112;-82
2022/03/03 01:18:05;;;;;;;12.18;8.77;;;6.30;96.70;;;;;;5003527;28;20046;-83
2022/03/03 01:20:34;;;;;;;10.98;8.00;;;6.30;96.70;;;;;;4994915;28;20038;-83
2022/03/03 01:23:02;;;;;;;13.93;9.25;;;6.40;96.70;;;;;;4973259;28;20046;-83
2022/03/03 01:25:30;;;;;;;13.48;8.75;;;6.40;96.70;;;;;;4994573;28;20046;-83
2022/03/03 01:27:59;;;;;;;10.57;8.38;;;6.40;96.70;;;;;;4988462;28;20050;-83
2022/03/03 01:30:27;;;;;;;9.85;7.47;;;6.40;96.70;;;;;;4995382;28;20042;-83
2022/03/03 01:32:55;;;;;;;10.15;7.65;;;6.50;96.70;;;;;;4988697;28;20090;-83
2022/03/03 01:35:26;;;;;;;13.27;7.38;;;6.40;96.70;;;;;;5009267;28;20041;-83
2022/03/03 01:37:54;;;;;;;9.23;6.78;;;6.40;96.70;;;;;;4974303;28;20543;-80
2022/03/03 01:40:23;;;;;;;7.68;5.90;;;6.40;96.70;;;;;;4986261;28;20058;-81
2022/03/03 01:42:52;;;;;;;7.88;5.97;;;6.50;96.70;;;;;;4983101;28;20045;-81
2022/03/03 01:45:20;;;;;;;7.53;5.70;;;6.40;96.70;;;;;;4985498;28;20045;-80
2022/03/03 01:47:49;;;;;;;8.82;5.60;;;6.40;96.70;;;;;;4986036;28;20138;-79
2022/03/03 01:50:17;;;;;;;6.72;5.05;;;6.30;96.70;;;;;;4986644;28;20042;-80
2022/03/03 01:52:47;;;;;;;11.32;5.68;;;6.30;96.70;;;;;;4997513;28;20084;-82
2022/03/03 01:55:15;;;;;;;7.45;5.53;;;6.30;96.70;;;;;;4984486;28;20054;-81
2022/03/03 01:57:43;;;;;;;9.48;6.35;;;6.40;96.70;;;;;;4999253;28;20043;-79
2022/03/03 02:00:13;;;;;;;7.88;5.68;;;6.40;96.70;;;;;;4970787;28;20046;-81
2022/03/03 02:02:41;;;;;;;8.32;6.30;;;6.40;96.70;;;;;;4993065;28;20049;-81
2022/03/03 02:05:09;;;;;;;9.02;5.78;;;6.30;96.70;;;;;;4988975;28;20133;-81
2022/03/03 02:07:38;;;;;;;11.90;6.47;;;6.40;96.70;;;;;;4987068;28;20500;-81
2022/03/03 02:10:08;;;;;;;8.18;6.65;;;6.30;96.70;;;;;;4991181;28;20049;-81
2022/03/03 02:12:37;;;;;;;8.52;6.03;;;6.20;96.70;;;;;;4991580;28;20129;-79
2022/03/03 02:15:06;;;;;;;10.45;7.00;;;6.20;96.70;;;;;;4973339;28;20500;-81
2022/03/03 02:17:34;;;;;;;6.85;5.72;;;6.30;96.70;;;;;;4990339;28;20045;-80
2022/03/03 02:20:18;;;;;;;8.40;6.05;;;6.50;96.70;;;;;;4986276;28;20480;-80
2022/03/03 02:22:46;;;;;;;7.53;6.05;;;6.50;96.70;;;;;;4966354;28;20070;-82
2022/03/03 02:25:14;;;;;;;7.53;5.85;;;6.40;96.70;;;;;;4990477;28;20069;-82
2022/03/03 02:27:44;;;;;;;8.60;6.35;;;6.40;96.70;;;;;;4990922;28;20136;-81
2022/03/03 02:30:14;;;;;;;7.93;6.15;;;6.30;96.70;;;;;;4990470;28;20048;-81
2022/03/03 02:32:43;;;;;;;8.18;6.20;;;6.30;96.70;;;;;;4987939;28;20077;-81
2022/03/03 02:35:14;;;;;;;8.10;6.20;;;6.30;96.70;;;;;;4984352;28;20108;-81
2022/03/03 02:37:44;;;;;;;10.35;6.40;;;6.30;96.70;;;;;;5006501;28;20061;-82
2022/03/03 02:40:20;;;;;;;7.65;6.30;;;6.20;96.70;;;;;;4986087;28;20069;-81
2022/03/03 02:42:50;;;;;;;9.23;7.07;;;6.10;96.70;;;;;;5007244;28;21227;-81
2022/03/03 02:45:20;;;;;;;10.27;7.68;;;6.00;96.70;;;;;;4969801;28;20075;-82
2022/03/03 02:47:50;;;;;;;10.30;7.50;;;6.00;96.70;;;;;;4988988;28;20081;-81
2022/03/03 02:50:28;;;;;;;10.50;8.05;;;6.10;96.70;;;;;;4978567;28;20057;-80
2022/03/03 02:53:00;;;;;;;12.32;8.30;;;6.10;96.70;;;;;;4989076;28;20068;-81
2022/03/03 02:55:29;;;;;;;11.13;8.23;;;6.10;96.70;;;;;;4988759;28;20042;-80
2022/03/03 02:57:58;;;;;;;11.55;8.13;;;6.10;96.70;;;;;;5005104;28;21282;-81
2022/03/03 03:00:28;;;;;;;10.93;7.95;;;6.00;96.70;;;;;;4986809;28;20038;-81
2022/03/03 03:02:57;;;;;;;11.80;7.93;;;6.10;96.70;;;;;;4995219;28;20061;-80
2022/03/03 03:05:27;;;;;;;9.85;7.50;;;6.10;96.70;;;;;;4984135;28;20046;-78
2022/03/03 03:07:57;;;;;;;10.80;8.05;;;6.20;96.70;;;;;;4985629;28;20133;-79
2022/03/03 03:10:26;;;;;;;9.43;7.28;;;6.20;96.70;;;;;;4983029;28;20054;-80
2022/03/03 03:12:55;;;;;;;10.23;7.18;;;6.10;96.70;;;;;;4983431;28;20060;-80
2022/03/03 03:15:24;;;;;;;10.73;6.32;;;6.10;96.70;;;;;;4984357;28;20073;-81
2022/03/03 03:17:53;;;;;;;7.60;6.18;;;6.10;96.70;;;;;;4986264;28;20050;-81
2022/03/03 03:20:21;;;;;;;6.78;5.78;;;6.00;96.70;;;;;;4997364;28;20475;-80
2022/03/03 03:22:52;;;;;;;7.93;6.28;;;6.10;96.70;;;;;;4988965;28;20042;-81
2022/03/03 03:25:20;;;;;;;8.52;6.13;;;6.00;96.70;;;;;;4987051;28;20054;-80
2022/03/03 03:27:51;;;;;;;6.88;5.78;;;6.00;96.70;;;;;;4989685;28;20042;-80
2022/03/03 03:30:20;;;;;;;7.93;5.90;;;6.00;96.70;;;;;;4987634;28;20108;-80
2022/03/03 03:32:48;;;;;;;6.50;5.68;;;6.10;96.70;;;;;;4993646;28;20132;-80
2022/03/03 03:35:17;;;;;;;9.25;6.00;;;6.00;96.70;;;;;;4989248;28;20046;-81
2022/03/03 03:37:45;;;;;;;7.30;5.45;;;6.10;96.70;;;;;;4992225;28;20509;-81
2022/03/03 03:40:16;;;;;;;8.45;5.55;;;6.10;96.70;;;;;;4995448;28;20050;-79
2022/03/03 03:42:44;;;;;;;9.07;5.53;;;6.10;96.70;;;;;;4988248;28;20049;-80
2022/03/03 03:45:13;;;;;;;7.13;5.97;;;6.10;96.70;;;;;;4990674;28;20494;-79
2022/03/03 03:47:42;;;;;;;10.15;6.05;;;6.10;96.70;;;;;;4995031;28;20056;-83
2022/03/03 03:50:13;;;;;;;11.27;5.90;;;6.10;96.70;;;;;;5011728;28;20050;-83
2022/03/03 03:52:43;;;;;;;9.43;6.30;;;6.00;96.70;;;;;;4991408;28;20053;-83
2022/03/03 03:55:12;;;;;;;7.47;5.82;;;6.10;96.70;;;;;;4994477;28;20054;-83
2022/03/03 03:57:42;;;;;;;7.70;5.85;;;6.20;96.70;;;;;;5002767;28;20038;-83
2022/03/03 04:00:16;;;;;;;8.93;6.13;;;6.10;96.70;;;;;;5014167;28;20045;-83
2022/03/03 04:02:46;;;;;;;8.75;6.20;;;6.10;96.70;;;;;;5014805;28;20173;-83
2022/03/03 04:05:15;;;;;;;8.50;6.30;;;6.00;96.70;;;;;;4992698;28;20061;-83
2022/03/03 04:07:44;;;;;;;7.22;5.82;;;5.90;96.70;;;;;;4987960;28;20051;-83
2022/03/03 04:10:13;;;;;;;8.10;6.18;;;6.00;96.70;;;;;;4991513;28;20034;-81
2022/03/03 04:12:43;;;;;;;8.35;6.07;;;6.10;96.70;;;;;;5005802;28;20046;-81
2022/03/03 04:15:13;;;;;;;8.00;5.97;;;6.10;96.70;;;;;;5004874;28;20047;-81
2022/03/03 04:17:42;;;;;;;8.98;6.00;;;6.10;96.70;;;;;;5001032;28;20041;-81
2022/03/03 04:20:11;;;;;;;7.63;6.22;;;6.10;96.70;;;;;;4998795;28;20057;-80
2022/03/03 04:22:40;;;;;;;8.60;6.10;;;6.20;96.70;;;;;;4979869;28;20054;-83
2022/03/03 04:25:12;;;;;;;9.50;6.35;;;6.20;96.70;;;;;;4992893;28;20068;-83
2022/03/03 04:27:42;;;;;;;8.13;6.05;;;6.30;96.70;;;;;;4993175;28;20115;-80
2022/03/03 04:30:12;;;;;;;8.75;6.18;;;6.30;96.70;;;;;;4999368;28;20050;-79
2022/03/03 04:32:41;;;;;;;8.40;6.18;;;6.20;96.70;;;;;;4983749;28;20066;-81
2022/03/03 04:35:10;;;;;;;9.57;7.15;;;6.20;96.70;;;;;;4971923;28;20046;-79
2022/03/03 04:37:39;;;;;;;8.02;5.72;;;6.20;96.70;;;;;;4979534;28;20542;-81
2022/03/03 04:40:08;;;;;;;8.68;6.20;;;6.10;96.70;;;;;;4987167;28;20674;-80
2022/03/03 04:42:37;;;;;;;8.68;6.07;;;6.10;96.70;;;;;;4988379;28;20051;-80
2022/03/03 04:45:08;;;;;;;7.97;6.07;;;6.10;96.70;;;;;;4987527;28;20408;-81
2022/03/03 04:47:37;;;;;;;8.02;6.07;;;6.20;96.70;;;;;;4986743;28;20134;-82
2022/03/03 04:50:07;;;;;;;8.80;6.38;;;6.20;96.70;;;;;;4987860;28;20038;-81
2022/03/03 04:52:36;;;;;;;8.20;5.85;;;6.20;96.70;;;;;;4987994;28;20085;-81
2022/03/03 04:55:05;;;;;;;8.70;6.57;;;6.20;96.70;;;;;;4989113;28;20503;-81
2022/03/03 04:57:34;;;;;;;8.90;6.18;;;6.10;96.70;;;;;;4985013;28;20653;-81
2022/03/03 05:00:06;;;;;;;8.65;6.72;;;6.00;96.70;;;;;;4983619;28;20551;-81
2022/03/03 05:02:35;;;;;;;8.15;6.43;;;5.90;96.70;;;;;;4988316;28;20038;-80
2022/03/03 05:05:05;;;;;;;8.70;6.53;;;6.00;96.70;;;;;;4994177;28;20046;-80
2022/03/03 05:07:34;;;;;;;9.55;6.70;;;6.10;96.70;;;;;;5005900;28;20153;-82
2022/03/03 05:10:03;;;;;;;7.95;6.05;;;6.10;96.70;;;;;;5004038;28;20042;-81
2022/03/03 05:12:32;;;;;;;9.90;6.32;;;6.10;96.70;;;;;;4988172;28;20077;-81
2022/03/03 05:15:01;;;;;;;9.23;6.53;;;6.10;96.70;;;;;;4985022;28;20584;-82
2022/03/03 05:17:31;;;;;;;9.10;6.80;;;6.10;96.70;;;;;;4976587;28;20060;-81
2022/03/03 05:19:59;;;;;;;9.95;7.18;;;6.20;96.70;;;;;;4988028;28;20053;-79
2022/03/03 05:22:28;;;;;;;9.88;6.60;;;6.20;96.70;;;;;;4987884;28;20037;-82
2022/03/03 05:24:57;;;;;;;7.65;5.90;;;6.10;96.70;;;;;;5004989;28;20046;-80
2022/03/03 05:27:26;;;;;;;9.23;6.20;;;6.10;96.70;;;;;;4984910;28;20066;-79
2022/03/03 05:29:54;;;;;;;8.23;6.65;;;6.10;96.70;;;;;;5003541;28;20475;-81
2022/03/03 05:32:23;;;;;;;9.02;7.22;;;6.10;96.70;;;;;;5002681;28;20052;-80
2022/03/03 05:34:53;;;;;;;11.00;7.32;;;6.10;96.70;;;;;;5001985;28;20047;-81
2022/03/03 05:37:24;;;;;;;9.65;6.75;;;5.90;96.70;;;;;;4984029;28;20933;-81
2022/03/03 05:39:53;;;;;;;8.88;6.75;;;5.90;96.70;;;;;;5001073;28;20113;-80
2022/03/03 05:42:24;;;;;;;11.05;7.50;;;6.00;96.70;;;;;;4986222;28;20565;-83
2022/03/03 05:44:54;;;;;;;9.90;7.05;;;6.00;96.70;;;;;;4987426;28;20050;-83
2022/03/03 05:47:28;;;;;;;10.60;7.60;;;5.90;96.70;;;;;;4992193;28;20042;-83
2022/03/03 05:49:59;;;;;;;11.00;7.68;;;5.90;96.70;;;;;;4992638;28;20137;-83
2022/03/03 05:52:28;;;;;;;12.10;8.07;;;5.90;96.70;;;;;;4989426;28;20046;-83
2022/03/03 05:54:56;;;;;;;11.27;7.97;;;5.90;96.70;;;;;;5006017;28;20096;-83
2022/03/03 05:57:31;;;;;;;11.18;7.38;;;5.90;96.70;;;;;;4988807;28;20042;-82
2022/03/03 06:00:05;;;;;;;11.90;7.88;;;5.90;96.70;;;;;;4990602;28;20058;-83
2022/03/03 06:02:47;;;;;;;10.43;8.15;;;5.90;96.70;;;;;;4982113;28;20046;-83
2022/03/03 06:05:19;;;;;;;11.45;8.15;;;5.80;96.70;;;;;;4993329;28;20038;-83
2022/03/03 06:07:52;;;;;;;13.23;7.78;;;5.90;96.70;;;;;;4986800;28;20039;-83
2022/03/03 06:10:23;;;;;;;11.02;8.30;;;5.90;96.70;;;;;;4988106;28;20116;-83
2022/03/03 06:13:00;;;;;;;10.32;7.00;;;6.00;96.70;;;;;;4986519;28;20046;-83
2022/03/03 06:15:30;;;;;;;10.77;8.15;;;6.10;96.70;;;;;;5005372;28;20156;-83
2022/03/03 06:18:02;;;;;;;11.60;8.00;;;6.00;96.70;;;;;;4995862;28;20038;-83
2022/03/03 06:20:34;;;;;;;13.07;8.73;;;6.00;96.70;;;;;;5009322;28;20046;-83
2022/03/03 06:23:02;;;;;;;11.40;8.38;;;6.00;96.70;;;;;;4989402;28;20500;-83
2022/03/03 06:25:31;;;;;;;15.18;8.32;;;6.10;96.70;;;;;;4992612;28;20135;-83
2022/03/03 06:28:02;;;;;;;11.27;8.07;;;6.00;96.70;;;;;;5007210;28;20503;-82
2022/03/03 06:30:32;;;;;;;11.10;8.20;;;6.00;96.70;;;;;;4975997;28;20100;-83
2022/03/03 06:33:00;;;;;;;11.77;7.90;;;6.10;96.70;;;;;;4989738;28;20133;-83
2022/03/03 06:35:29;;;;;;;13.75;7.95;;;6.10;96.70;;;;;;4986495;28;20043;-83
2022/03/03 06:37:58;;;;;;;10.05;7.85;;;6.10;96.70;;;;;;4995127;28;20117;-83
2022/03/03 06:40:26;;;;;;;11.05;7.72;;;6.20;96.70;;;;;;4990566;28;20046;-83
2022/03/03 06:43:00;;;;;;;13.52;8.80;;;6.20;96.70;;;;;;4991028;28;20037;-83
2022/03/03 06:45:29;;;;;;;14.35;8.13;;;6.20;96.70;;;;;;5000763;28;20080;-83
2022/03/03 06:48:02;;;;;;;12.00;8.65;;;6.10;96.70;;;;;;4982465;28;21355;-84
2022/03/03 06:50:30;;;;;;;11.20;8.18;;;6.10;96.70;;;;;;5006020;28;20054;-83
2022/03/03 06:53:03;;;;;;;15.68;8.60;;;6.10;96.70;;;;;;5001883;28;20042;-83
2022/03/03 06:55:32;;;;;;;13.25;8.70;;;6.20;96.70;;;;;;4987790;28;20070;-83
2022/03/03 06:58:01;;;;;;;12.15;8.90;;;6.30;96.70;;;;;;4987781;28;20054;-85
2022/03/03 07:00:33;;;;;;;11.55;7.68;;;6.30;96.70;;;;;;4997382;28;20061;-85
2022/03/03 07:03:04;;;;;;;10.02;7.97;;;6.40;96.70;;;;;;4992892;28;20046;-85
2022/03/03 07:05:32;;;;;;;13.15;8.73;;;6.50;96.70;;;;;;4995135;28;20149;-82
2022/03/03 07:08:02;;;;;;;12.65;8.30;;;6.40;96.70;;;;;;4991920;28;20695;-84
2022/03/03 07:10:32;;;;;;;13.43;8.57;;;6.50;96.70;;;;;;4989920;28;20042;-83
2022/03/03 07:13:00;;;;;;;12.77;9.10;;;6.40;96.70;;;;;;4989856;28;20042;-84
2022/03/03 07:15:28;;;;;;;15.77;8.52;;;6.50;96.70;;;;;;5011045;28;20093;-82
2022/03/03 07:18:05;;;;;;;12.10;8.32;;;6.60;96.70;;;;;;4980382;28;20089;-82
2022/03/03 07:20:41;;;;;;;12.75;8.60;;;6.60;96.70;;;;;;4988210;28;20049;-81
2022/03/03 07:23:29;;;;;;;13.38;8.00;;;6.60;96.70;;;;;;4987641;28;20104;-81
2022/03/03 07:26:00;;;;;;;12.93;9.15;;;6.70;96.70;;;;;;4994864;28;20060;-82
2022/03/03 07:28:29;;;;;;;13.90;9.35;;;6.80;96.70;;;;;;4991336;28;20072;-82
2022/03/03 07:31:01;;;;;;;15.10;8.98;;;6.70;96.70;;;;;;4990307;28;20046;-82
2022/03/03 07:33:40;;;;;;;11.00;8.52;;;6.70;96.70;;;;;;4988005;28;20130;-81
2022/03/03 07:36:12;;;;;;;14.00;8.88;;;6.70;96.70;;;;;;5002420;28;20141;-81
2022/03/03 07:38:46;;;;;;;12.68;9.57;;;6.70;96.70;;;;;;4986861;28;20046;-82
2022/03/03 07:41:14;;;;;;;15.05;9.32;;;6.80;96.70;;;;;;5008370;28;20153;-82
2022/03/03 07:43:43;;;;;;;12.10;9.45;;;6.80;96.70;;;;;;4999016;28;20056;-81
2022/03/03 07:46:11;;;;;;;13.30;9.13;;;6.90;96.70;;;;;;4998949;28;20038;-82
2022/03/03 07:48:41;;;;;;;16.45;10.20;;;6.90;96.70;;;;;;4986763;28;20054;-82
2022/03/03 07:51:10;;;;;;;12.18;9.20;;;6.90;96.70;;;;;;4991078;28;20080;-82
2022/03/03 07:53:39;;;;;;;10.65;9.13;;;6.90;96.70;;;;;;4989544;28;20042;-82
2022/03/03 07:56:09;;;;;;;11.82;9.30;;;6.90;96.70;;;;;;4996005;28;20042;-82
2022/03/03 07:58:41;;;;;;;14.38;9.27;;;6.90;96.70;;;;;;5001754;28;20121;-82
2022/03/03 08:01:10;;;;;;;12.15;8.75;;;6.90;96.70;;;;;;5002177;28;20043;-82
2022/03/03 08:03:44;;;;;;;12.93;9.65;;;6.90;96.70;;;;;;5004729;28;20137;-82
2022/03/03 08:06:14;;;;;;;14.07;10.27;;;7.00;96.70;;;;;;4997991;28;20151;-81
2022/03/03 08:08:44;;;;;;;13.13;9.68;;;7.00;96.70;;;;;;4991308;28;20700;-81
2022/03/03 08:11:19;;;;;;;13.38;10.35;;;7.00;96.70;;;;;;4982358;28;20124;-79
2022/03/03 08:13:51;;;;;;;12.25;9.13;;;7.00;96.70;;;;;;4986352;28;20706;-82
2022/03/03 08:16:19;;;;;;;14.82;9.43;;;7.10;96.70;;;;;;5006318;28;20511;-82
2022/03/03 08:18:48;;;;;;;11.98;9.13;;;7.20;96.70;;;;;;4988225;28;20038;-83
2022/03/03 08:21:16;;;;;;;12.93;9.65;;;7.30;96.70;;;;;;5006151;28;20042;-83
2022/03/03 08:23:45;;;;;;;14.10;9.95;;;7.40;96.70;;;;;;4974119;28;20168;-81
2022/03/03 08:26:17;;;;;;;15.57;10.30;;;7.50;96.70;;;;;;4987793;28;20058;-82
2022/03/03 08:28:45;;;;;;;14.07;10.10;;;7.50;96.70;;;;;;5005998;28;20050;-81
2022/03/03 08:31:19;;;;;;;15.90;9.88;;;7.50;96.70;;;;;;4987268;28;20042;-81
2022/03/03 08:33:53;;;;;;;13.13;10.32;;;7.70;96.70;;;;;;4993263;28;20543;-82
2022/03/03 08:36:30;;;;;;;15.85;10.93;;;7.70;96.70;;;;;;4991183;28;20675;-81
2022/03/03 08:39:03;;;;;;;13.57;11.05;;;7.80;96.70;;;;;;4982833;28;20100;-82
2022/03/03 08:41:37;;;;;;;16.50;11.00;;;7.90;96.70;;;;;;4993319;28;20528;-83
2022/03/03 08:44:07;;;;;;;17.98;11.32;;;8.00;96.70;;;;;;4990559;28;20050;-81
2022/03/03 08:46:38;;;;;;;21.33;12.02;;;8.10;96.70;;;;;;4975798;28;20591;-82
2022/03/03 08:49:09;;;;;;;16.95;11.93;;;8.20;96.70;;;;;;5006546;28;20054;-81
2022/03/03 08:51:38;;;;;;;22.48;12.57;;;8.20;96.70;;;;;;4985597;28;20045;-83
2022/03/03 08:54:07;;;;;;;19.77;11.95;;;8.30;96.70;;;;;;5003434;28;20050;-81
2022/03/03 08:56:37;;;;;;;19.17;11.88;;;8.40;96.70;;;;;;4989603;28;20077;-82
2022/03/03 08:59:05;;;;;;;21.23;13.05;;;8.40;96.70;;;;;;4988352;28;20046;-79
2022/03/03 09:01:34;;;;;;;16.73;12.60;;;8.50;96.70;;;;;;4992520;28;20120;-81
2022/03/03 09:04:06;;;;;;;18.08;13.82;;;8.60;96.70;;;;;;4989731;28;20069;-80
2022/03/03 09:06:35;;;;;;;20.55;14.52;;;8.70;96.70;;;;;;4993814;28;20447;-80
2022/03/03 09:09:03;;;;;;;22.25;15.52;;;8.80;96.70;;;;;;4977336;28;20046;-79
2022/03/03 09:11:31;;;;;;;20.63;15.77;;;8.90;96.70;;;;;;4988100;28;20079;-80
2022/03/03 09:14:01;;;;;;;18.98;13.63;;;9.00;96.70;;;;;;4971158;28;20046;-82
2022/03/03 09:16:29;;;;;;;16.13;12.80;;;9.10;96.70;;;;;;4990291;28;20046;-80
2022/03/03 09:18:58;;;;;;;17.02;12.05;;;9.20;96.70;;;;;;4986096;28;20475;-80
2022/03/03 09:21:28;;;;;;;15.98;12.32;;;9.40;96.70;;;;;;4991920;28;20081;-81
2022/03/03 09:23:56;;;;;;;22.27;12.90;;;9.40;96.70;;;;;;4985516;28;20145;-79
2022/03/03 09:26:24;;;;;;;18.52;12.50;;;9.40;96.70;;;;;;4991703;28;20042;-82
2022/03/03 09:28:52;;;;;;;19.77;12.70;;;9.50;96.70;;;;;;5003870;28;20093;-82
2022/03/03 09:31:22;;;;;;;17.35;13.35;;;9.50;96.70;;;;;;4991469;28;20231;-81
2022/03/03 09:33:50;;;;;;;18.30;13.50;;;9.50;96.70;;;;;;5006041;28;20522;-79
2022/03/03 09:36:19;;;;;;;18.58;13.45;;;9.50;96.70;;;;;;5006134;28;20062;-80
2022/03/03 09:38:47;;;;;;;17.88;12.80;;;9.60;96.70;;;;;;4984958;28;20092;-80
2022/03/03 09:41:16;;;;;;;19.15;13.05;;;9.60;96.70;;;;;;4991680;28;20057;-81
2022/03/03 09:43:44;;;;;;;20.40;13.93;;;9.70;96.70;;;;;;4990739;28;20070;-81
2022/03/03 09:46:13;;;;;;;18.23;14.10;;;9.70;96.70;;;;;;4974794;28;20141;-81
2022/03/03 09:48:43;;;;;;;17.00;14.07;;;9.70;96.70;;;;;;4986192;28;20054;-82
2022/03/03 09:51:11;;;;;;;18.05;14.13;;;9.70;96.70;;;;;;4991238;28;20679;-82
2022/03/03 09:53:40;;;;;;;18.02;14.13;;;9.70;96.70;;;;;;5004028;28;20045;-82
2022/03/03 09:56:08;;;;;;;18.60;15.18;;;9.80;96.70;;;;;;4991582;28;20816;-82
2022/03/03 09:58:37;;;;;;;21.00;14.75;;;9.70;96.70;;;;;;4986442;28;20518;-82
2022/03/03 10:01:06;;;;;;;19.38;15.07;;;9.60;96.70;;;;;;4990132;28;20572;-81
2022/03/03 10:03:36;;;;;;;20.75;15.60;;;9.60;96.70;;;;;;5006864;28;20036;-81
2022/03/03 10:06:06;;;;;;;24.35;16.35;;;9.60;96.70;;;;;;4988560;28;20046;-82
2022/03/03 10:08:36;;;;;;;23.48;17.08;;;9.60;96.70;;;;;;4987799;28;20313;-81
2022/03/03 10:11:06;;;;;;;25.27;17.27;;;9.70;96.70;;;;;;4986180;28;20154;-82
2022/03/03 10:13:45;;;;;;;23.58;16.10;;;9.70;96.70;;;;;;4984750;28;20030;-83
2022/03/03 10:16:20;;;;;;;24.00;16.77;;;9.70;96.70;;;;;;4987048;28;20127;-81
2022/03/03 10:18:59;;;;;;;21.95;15.98;;;9.80;96.70;;;;;;4988820;28;20929;-82
2022/03/03 10:21:30;;;;;;;21.65;15.40;;;9.80;96.70;;;;;;4985269;28;20512;-81
2022/03/03 10:23:59;;;;;;;21.58;16.67;;;9.90;96.70;;;;;;5000539;28;20069;-81
2022/03/03 10:26:35;;;;;;;22.27;15.82;;;9.90;96.70;;;;;;4990474;28;20522;-82
2022/03/03 10:29:15;;;;;;;21.88;16.15;;;9.90;96.70;;;;;;4988137;28;20050;-82
2022/03/03 10:31:48;;;;;;;20.67;16.17;;;10.00;96.70;;;;;;5008734;28;20053;-81
2022/03/03 10:34:18;;;;;;;21.73;16.58;;;10.20;96.70;;;;;;4996517;28;20058;-81
2022/03/03 10:36:57;;;;;;;22.63;16.02;;;10.30;96.70;;;;;;5008266;28;20054;-82
2022/03/03 10:39:26;;;;;;;22.52;15.88;;;10.30;96.70;;;;;;4991708;28;20042;-82
2022/03/03 10:41:57;;;;;;;18.80;15.05;;;10.30;96.70;;;;;;4986437;28;20530;-80
2022/03/03 10:44:30;;;;;;;21.95;16.42;;;10.40;96.70;;;;;;4984535;28;20054;-81
2022/03/03 10:47:04;;;;;;;21.35;14.38;;;10.40;96.70;;;;;;4994374;28;20050;-80
2022/03/03 10:49:32;;;;;;;19.27;14.38;;;10.40;96.70;;;;;;4989412;28;20061;-80
2022/03/03 10:52:15;;;;;;;17.65;14.40;;;10.50;96.70;;;;;;5005994;28;20129;-81
2022/03/03 10:54:55;;;;;;;30.67;20.40;;;10.50;96.70;;;;;;4983899;28;20066;-83
2022/03/03 10:57:40;;;;;;;45.30;29.63;;;10.50;96.70;;;;;;4988179;28;20054;-82
2022/03/03 11:00:12;;;;;;;23.30;18.75;;;10.60;96.70;;;;;;4990016;28;20068;-82
2022/03/03 11:02:43;;;;;;;22.17;15.75;;;10.70;96.70;;;;;;4994911;28;20042;-82
2022/03/03 11:05:13;;;;;;;18.02;13.90;;;10.80;96.70;;;;;;4989446;28;20038;-82
2022/03/03 11:07:44;;;;;;;18.85;14.27;;;10.90;96.70;;;;;;4993244;28;20034;-82
2022/03/03 11:10:14;;;;;;;20.02;14.10;;;11.00;96.70;;;;;;4984800;28;20046;-82
2022/03/03 11:12:43;;;;;;;21.40;15.38;;;11.10;96.70;;;;;;4989742;28;20048;-81
2022/03/03 11:15:12;;;;;;;17.05;14.25;;;11.20;96.70;;;;;;4992074;28;20050;-79
2022/03/03 11:17:41;;;;;;;24.02;15.13;;;11.40;96.70;;;;;;4965534;28;20042;-80
2022/03/03 11:20:12;;;;;;;18.90;14.50;;;11.60;96.70;;;;;;5006043;28;20046;-80
2022/03/03 11:22:43;;;;;;;19.02;14.40;;;11.70;96.70;;;;;;5009562;28;20050;-80
2022/03/03 11:25:14;;;;;;;19.48;15.82;;;11.80;96.70;;;;;;4986675;28;20046;-81
2022/03/03 11:27:44;;;;;;;14.77;12.98;;;11.90;96.70;;;;;;4991450;28;20042;-82
2022/03/03 11:30:27;;;;;;;16.92;13.40;;;11.80;96.70;;;;;;4993470;28;20054;-81
2022/03/03 11:33:25;;;;;;;18.30;12.45;;;12.00;96.70;;;;;;4994046;28;20078;-80
2022/03/03 11:35:59;;;;;;;16.73;12.32;;;12.20;96.70;;;;;;5008451;28;20054;-81
2022/03/03 11:38:44;;;;;;;13.48;11.52;;;12.30;96.70;;;;;;5007382;28;20132;-80
2022/03/03 11:41:13;;;;;;;13.60;10.98;;;12.40;96.70;;;;;;5006340;28;20046;-80
2022/03/03 11:43:47;;;;;;;10.35;8.85;;;12.60;96.70;;;;;;4990950;28;20503;-80
2022/03/03 11:46:45;;;;;;;7.90;6.32;;;12.60;96.70;;;;;;5002999;28;20038;-80
2022/03/03 11:49:17;;;;;;;9.32;6.65;;;12.70;96.70;;;;;;5000155;28;20512;-81
2022/03/03 11:51:48;;;;;;;10.05;8.40;;;12.70;96.70;;;;;;5005105;28;20089;-84
2022/03/03 11:54:29;;;;;;;11.77;9.18;;;12.60;96.70;;;;;;4993329;28;20065;-83
2022/03/03 11:57:23;;;;;;;12.38;9.75;;;12.70;96.70;;;;;;4999755;28;20057;-83
2022/03/03 11:59:51;;;;;;;12.85;9.40;;;12.90;96.70;;;;;;4995059;28;20407;-83
2022/03/03 12:02:28;;;;;;;12.27;9.60;;;13.00;96.70;;;;;;4991330;28;20146;-84
2022/03/03 12:05:45;;;;;;;12.88;10.57;;;13.10;96.70;;;;;;4990390;28;20608;-83
2022/03/03 12:08:36;;;;;;;14.43;10.95;;;13.20;96.70;;;;;;4949083;28;20058;-83
2022/03/03 12:11:10;;;;;;;9.13;7.60;;;13.10;96.70;;;;;;4946315;28;20158;-83
2022/03/03 12:13:50;;;;;;;18.90;13.15;;;12.90;96.70;;;;;;4933637;29;20047;-83
2022/03/03 12:16:21;;;;;;;11.15;8.38;;;12.80;96.70;;;;;;4948290;28;20063;-84
2022/03/03 12:19:04;;;;;;;9.38;6.97;;;13.10;96.70;;;;;;4949047;28;20186;-82
2022/03/03 12:21:34;;;;;;;8.02;6.55;;;13.20;96.70;;;;;;4917326;28;20378;-82
2022/03/03 12:24:32;;;;;;;7.53;5.85;;;13.30;96.70;;;;;;4948525;28;20556;-84
2022/03/03 12:27:23;;;;;;;9.57;7.15;;;13.50;96.70;;;;;;4947357;28;20066;-84
2022/03/03 12:30:15;;;;;;;11.20;8.90;;;13.60;96.70;;;;;;4946783;28;20099;-83
2022/03/03 12:33:22;;;;;;;7.15;5.57;;;13.80;96.70;;;;;;4947733;28;20050;-85
2022/03/03 12:36:00;;;;;;;6.93;4.57;;;13.90;96.70;;;;;;4943284;28;20165;-85
2022/03/03 12:38:34;;;;;;;7.82;4.88;;;13.90;96.70;;;;;;4929289;28;20046;-85
2022/03/03 12:41:04;;;;;;;7.68;4.95;;;14.10;96.70;;;;;;4947443;28;20052;-84
2022/03/03 12:43:41;;;;;;;7.18;4.93;;;14.10;96.70;;;;;;5007414;28;20720;-85
2022/03/03 12:46:10;;;;;;;5.78;4.15;;;14.20;96.70;;;;;;4983183;28;20045;-84
2022/03/03 12:48:41;;;;;;;7.43;5.13;;;14.30;96.70;;;;;;4987192;28;20105;-82
2022/03/03 12:51:11;;;;;;;8.73;5.88;;;14.30;96.70;;;;;;4993555;28;20034;-86
2022/03/03 12:53:43;;;;;;;7.93;5.90;;;14.50;96.70;;;;;;4998096;28;20039;-86
2022/03/03 12:56:19;;;;;;;6.97;5.72;;;14.70;96.70;;;;;;5001070;28;20057;-83
2022/03/03 12:58:49;;;;;;;6.32;4.28;;;14.70;96.70;;;;;;4991447;28;20092;-83
2022/03/03 13:01:21;;;;;;;7.63;5.40;;;14.70;96.70;;;;;;4996904;28;20057;-83
2022/03/03 13:03:49;;;;;;;9.57;6.38;;;14.80;96.70;;;;;;4984330;28;20042;-82
2022/03/03 13:06:18;;;;;;;9.75;6.50;;;15.00;96.70;;;;;;4996304;28;20034;-83